createdAt,value
2017-11-12T00:02:42.910Z,92.10
2017-11-12T00:05:44.460Z,92.00
2017-11-12T00:08:46.622Z,92.40
2017-11-12T00:11:48.125Z,92.30
2017-11-12T00:14:49.746Z,92.00
2017-11-12T00:17:52.029Z,92.20
2017-11-12T00:20:54.468Z,92.20
2017-11-12T00:23:56.694Z,92.30
2017-11-12T00:26:58.352Z,92.20
2017-11-12T00:29:59.757Z,92.30
2017-11-12T00:33:01.438Z,92.30
2017-11-12T00:36:03.231Z,92.50
2017-11-12T00:39:04.896Z,92.40
2017-11-12T00:42:06.370Z,92.40
2017-11-12T00:45:07.918Z,92.50
2017-11-12T00:48:09.436Z,92.30
2017-11-12T00:51:10.961Z,92.20
2017-11-12T00:54:12.402Z,92.20
2017-11-12T00:57:13.984Z,92.30
2017-11-12T01:00:15.432Z,92.10
2017-11-12T01:03:16.967Z,92.20
2017-11-12T01:06:18.487Z,92.10
2017-11-12T01:09:20.816Z,92.20
2017-11-12T01:12:22.382Z,92.10
2017-11-12T01:15:23.966Z,92.10
2017-11-12T01:18:26.176Z,92.40
2017-11-12T01:21:27.767Z,92.10
2017-11-12T01:24:29.189Z,92.20
2017-11-12T01:27:31.242Z,92.10
2017-11-12T01:30:32.739Z,92.10
2017-11-12T01:33:34.285Z,92.30
2017-11-12T01:36:37.192Z,92.30
2017-11-12T01:39:38.638Z,92.50
2017-11-12T01:42:40.118Z,92.60
2017-11-12T01:45:42.334Z,92.50
2017-11-12T01:48:43.730Z,92.50
2017-11-12T01:51:45.118Z,92.50
2017-11-12T01:54:46.536Z,92.50
2017-11-12T01:57:48.720Z,92.50
2017-11-12T02:00:50.874Z,92.40
2017-11-12T02:03:52.330Z,92.40
2017-11-12T02:06:54.480Z,92.50
2017-11-12T02:09:55.941Z,92.30
2017-11-12T02:12:57.364Z,92.50
2017-11-12T02:15:58.805Z,92.70
2017-11-12T02:19:00.272Z,92.90
2017-11-12T02:22:01.688Z,92.70
2017-11-12T02:25:03.150Z,92.80
2017-11-12T02:28:04.612Z,92.90
2017-11-12T02:31:06.089Z,92.90
2017-11-12T02:34:07.519Z,92.80
2017-11-12T02:37:09.027Z,93.00
2017-11-12T02:40:10.523Z,92.90
2017-11-12T02:43:12.029Z,93.40
2017-11-12T02:46:13.634Z,93.10
2017-11-12T02:49:15.031Z,93.30
2017-11-12T02:52:17.300Z,93.20
2017-11-12T02:55:18.724Z,93.10
2017-11-12T02:58:20.156Z,93.00
2017-11-12T03:01:21.584Z,93.10
2017-11-12T03:04:23.073Z,92.90
2017-11-12T03:07:24.529Z,93.20
2017-11-12T03:10:25.968Z,93.00
2017-11-12T03:13:27.413Z,92.90
2017-11-12T03:16:28.800Z,93.00
2017-11-12T03:19:30.248Z,92.90
2017-11-12T03:22:31.680Z,93.10
2017-11-12T03:25:33.147Z,92.90
2017-11-12T03:28:34.651Z,92.90
2017-11-12T03:31:36.820Z,92.70
2017-11-12T03:34:38.993Z,92.90
2017-11-12T03:37:41.124Z,92.70
2017-11-12T03:40:42.603Z,92.70
2017-11-12T03:43:44.784Z,93.00
2017-11-12T03:46:46.942Z,92.80
2017-11-12T03:49:49.223Z,93.00
2017-11-12T03:52:51.376Z,92.90
2017-11-12T03:55:52.817Z,92.90
2017-11-12T03:58:54.271Z,92.80
2017-11-12T04:01:55.688Z,92.80
2017-11-12T04:04:57.121Z,92.80
2017-11-12T04:07:58.564Z,92.90
2017-11-12T04:11:00.038Z,92.80
2017-11-12T04:14:01.513Z,92.90
2017-11-12T04:17:02.924Z,93.20
2017-11-12T04:20:04.332Z,92.80
2017-11-12T04:23:05.824Z,92.90
2017-11-12T04:26:07.952Z,92.90
2017-11-12T04:29:09.388Z,92.80
2017-11-12T04:32:10.780Z,92.90
2017-11-12T04:35:19.860Z,92.90
2017-11-12T04:38:21.300Z,92.90
2017-11-12T04:41:22.715Z,92.90
2017-11-12T04:44:24.885Z,92.90
2017-11-12T04:47:27.028Z,93.10
2017-11-12T04:50:28.471Z,93.00
2017-11-12T04:53:29.905Z,93.00
2017-11-12T04:56:31.321Z,93.10
2017-11-12T04:59:33.618Z,93.00
2017-11-12T05:02:34.992Z,92.90
2017-11-12T05:05:36.441Z,93.10
2017-11-12T05:08:37.880Z,93.00
2017-11-12T05:11:39.333Z,93.10
2017-11-12T05:14:40.801Z,93.00
2017-11-12T05:17:42.232Z,93.20
2017-11-12T05:20:43.658Z,93.00
2017-11-12T05:23:45.826Z,93.40
2017-11-12T05:26:47.974Z,93.40
2017-11-12T05:29:49.390Z,93.30
2017-11-12T05:32:50.806Z,93.50
2017-11-12T05:35:52.973Z,93.60
2017-11-12T05:38:54.407Z,93.50
2017-11-12T05:41:55.831Z,93.70
2017-11-12T05:44:57.244Z,93.80
2017-11-12T05:47:58.656Z,93.70
2017-11-12T05:51:00.832Z,93.60
2017-11-12T05:54:04.065Z,93.90
2017-11-12T05:57:05.515Z,93.60
2017-11-12T06:00:06.905Z,93.20
2017-11-12T06:03:08.377Z,93.40
2017-11-12T06:06:09.806Z,93.20
2017-11-12T06:09:11.248Z,93.30
2017-11-12T06:12:12.713Z,93.60
2017-11-12T06:15:14.205Z,93.40
2017-11-12T06:18:15.649Z,93.30
2017-11-12T06:21:17.856Z,93.60
2017-11-12T06:24:19.317Z,93.30
2017-11-12T06:27:20.777Z,93.50
2017-11-12T06:30:22.261Z,93.40
2017-11-12T06:33:23.653Z,93.60
2017-11-12T06:36:25.087Z,93.50
2017-11-12T06:39:27.262Z,94.00
2017-11-12T06:42:28.698Z,93.70
2017-11-12T06:45:30.168Z,93.50
2017-11-12T06:48:32.328Z,93.50
2017-11-12T06:51:34.525Z,93.30
2017-11-12T06:54:35.920Z,93.30
2017-11-12T06:57:37.349Z,93.60
2017-11-12T07:00:38.796Z,93.60
2017-11-12T07:03:40.169Z,93.20
2017-11-12T07:06:41.572Z,93.30
2017-11-12T07:09:42.991Z,93.30
2017-11-12T07:12:44.437Z,93.60
2017-11-12T07:15:45.868Z,93.40
2017-11-12T07:18:47.275Z,93.30
2017-11-12T07:21:48.701Z,93.50
2017-11-12T07:24:50.130Z,93.50
2017-11-12T07:27:51.874Z,93.50
2017-11-12T07:30:53.270Z,93.50
2017-11-12T07:33:54.644Z,93.50
2017-11-12T07:36:56.095Z,93.40
2017-11-12T07:39:57.519Z,93.60
2017-11-12T07:42:59.659Z,93.50
2017-11-12T07:46:01.101Z,93.50
2017-11-12T07:49:02.578Z,93.60
2017-11-12T07:52:03.981Z,93.60
2017-11-12T07:55:05.412Z,93.30
2017-11-12T07:58:07.525Z,93.70
2017-11-12T08:01:08.957Z,93.60
2017-11-12T08:04:10.355Z,93.70
2017-11-12T08:07:11.812Z,93.80
2017-11-12T08:10:13.320Z,93.80
2017-11-12T08:13:14.761Z,93.70
2017-11-12T08:16:16.181Z,94.00
2017-11-12T08:19:17.609Z,94.20
2017-11-12T08:22:19.772Z,94.30
2017-11-12T08:25:21.177Z,94.40
2017-11-12T08:28:22.733Z,94.40
2017-11-12T08:31:24.198Z,94.30
2017-11-12T08:34:25.635Z,94.30
2017-11-12T08:37:27.893Z,94.40
2017-11-12T08:40:30.047Z,94.50
2017-11-12T08:43:31.597Z,94.50
2017-11-12T08:46:32.987Z,94.80
2017-11-12T08:49:34.549Z,95.00
2017-11-12T08:52:36.116Z,94.70
2017-11-12T08:55:37.637Z,94.90
2017-11-12T08:58:39.784Z,95.00
2017-11-12T09:01:41.285Z,95.00
2017-11-12T09:04:42.734Z,95.10
2017-11-12T09:07:44.103Z,95.20
2017-11-12T09:10:45.469Z,94.60
2017-11-12T09:13:46.778Z,94.30
2017-11-12T09:16:48.124Z,94.40
2017-11-12T09:19:50.176Z,94.10
2017-11-12T09:22:52.236Z,94.20
2017-11-12T09:25:54.340Z,94.30
2017-11-12T09:28:55.682Z,93.90
2017-11-12T09:31:57.028Z,93.50
2017-11-12T09:34:58.312Z,93.20
2017-11-12T09:37:59.660Z,92.70
2017-11-12T09:41:01.003Z,92.80
2017-11-12T09:44:02.305Z,92.90
2017-11-12T09:47:03.639Z,92.30
2017-11-12T09:50:04.953Z,92.70
2017-11-12T09:53:06.967Z,92.90
2017-11-12T09:56:08.265Z,92.90
2017-11-12T09:59:10.345Z,92.90
2017-11-12T10:02:11.641Z,92.90
2017-11-12T10:05:13.703Z,93.50
2017-11-12T10:08:14.990Z,93.50
2017-11-12T10:11:16.320Z,93.80
2017-11-12T10:14:18.556Z,93.80
2017-11-12T10:17:19.898Z,93.80
2017-11-12T10:20:21.195Z,94.30
2017-11-12T10:23:23.322Z,93.90
2017-11-12T10:26:31.524Z,93.60
2017-11-12T10:29:32.842Z,94.20
2017-11-12T10:32:34.188Z,93.60
2017-11-12T10:35:42.596Z,93.80
2017-11-12T10:38:43.940Z,94.20
2017-11-12T10:41:45.232Z,93.80
2017-11-12T10:44:46.556Z,93.60
2017-11-12T10:47:47.873Z,94.10
2017-11-12T10:50:49.900Z,94.10
2017-11-12T10:53:51.200Z,94.10
2017-11-12T10:56:52.524Z,93.80
2017-11-12T10:59:53.822Z,94.10
2017-11-12T11:02:55.098Z,93.70
2017-11-12T11:05:56.369Z,93.90
2017-11-12T11:08:57.680Z,94.00
2017-11-12T11:11:59.009Z,93.80
2017-11-12T11:15:00.300Z,93.50
2017-11-12T11:18:01.624Z,93.40
2017-11-12T11:21:02.975Z,93.70
2017-11-12T11:24:04.258Z,93.40
2017-11-12T11:27:05.543Z,93.30
2017-11-12T11:30:06.872Z,92.90
2017-11-12T11:33:08.913Z,93.40
2017-11-12T11:36:10.195Z,93.40
2017-11-12T11:39:12.256Z,92.90
2017-11-12T11:42:15.797Z,93.30
2017-11-12T11:45:17.137Z,93.30
2017-11-12T11:48:18.549Z,94.50
2017-11-12T11:51:19.866Z,93.20
2017-11-12T11:54:21.437Z,93.30
2017-11-12T11:57:23.081Z,93.30
2017-11-12T12:00:24.843Z,93.00
2017-11-12T12:03:26.125Z,93.40
2017-11-12T12:06:27.400Z,93.20
2017-11-12T12:09:29.494Z,93.80
2017-11-12T12:12:30.803Z,93.70
2017-11-12T12:15:32.112Z,93.50
2017-11-12T12:18:34.261Z,93.80
2017-11-12T12:21:35.587Z,93.80
2017-11-12T12:24:37.571Z,94.30
2017-11-12T12:27:38.871Z,94.20
2017-11-12T12:30:40.173Z,93.80
2017-11-12T12:33:41.488Z,94.20
2017-11-12T12:36:42.765Z,93.80
2017-11-12T12:39:44.033Z,94.00
2017-11-12T12:42:45.344Z,93.60
2017-11-12T12:45:47.398Z,94.10
2017-11-12T12:48:48.732Z,94.10
2017-11-12T12:51:57.139Z,93.80
2017-11-12T12:54:59.846Z,93.70
2017-11-12T12:58:01.938Z,94.10
2017-11-12T13:01:03.761Z,94.00
2017-11-12T13:04:06.442Z,93.80
2017-11-12T13:07:07.959Z,93.80
2017-11-12T13:10:09.727Z,94.10
2017-11-12T13:13:13.163Z,94.00
2017-11-12T13:16:15.256Z,93.10
2017-11-12T13:19:17.770Z,93.30
2017-11-12T13:22:20.308Z,93.30
2017-11-12T13:25:21.847Z,92.70
2017-11-12T13:28:25.292Z,93.30
2017-11-12T13:31:26.655Z,93.30
2017-11-12T13:34:27.941Z,93.20
2017-11-12T13:37:36.314Z,93.30
2017-11-12T13:40:37.775Z,93.10
2017-11-12T13:43:46.216Z,92.70
2017-11-12T13:46:47.683Z,93.00
2017-11-12T13:49:48.955Z,93.10
2017-11-12T13:52:51.100Z,93.10
2017-11-12T13:55:52.411Z,93.10
2017-11-12T13:58:53.701Z,93.10
2017-11-12T14:01:55.148Z,93.40
2017-11-12T14:04:56.457Z,93.40
2017-11-12T14:07:57.813Z,93.20
2017-11-12T14:10:59.109Z,93.30
2017-11-12T14:14:00.421Z,93.60
2017-11-12T14:17:01.669Z,93.50
2017-11-12T14:20:02.998Z,93.60
2017-11-12T14:23:04.279Z,93.70
2017-11-12T14:26:05.621Z,93.40
2017-11-12T14:29:07.043Z,93.80
2017-11-12T14:32:08.418Z,94.20
2017-11-12T14:35:09.752Z,93.90
2017-11-12T14:38:11.053Z,93.60
2017-11-12T14:41:12.358Z,93.90
2017-11-12T14:44:13.632Z,94.20
2017-11-12T14:47:14.969Z,95.10
2017-11-12T14:50:16.265Z,93.50
2017-11-12T14:53:18.323Z,94.20
2017-11-12T14:56:20.361Z,94.00
2017-11-12T14:59:22.426Z,94.20
2017-11-12T15:02:23.731Z,94.20
2017-11-12T15:05:25.026Z,94.30
2017-11-12T15:08:26.342Z,94.20
2017-11-12T15:11:27.614Z,94.20
2017-11-12T15:14:28.964Z,94.30
2017-11-12T15:17:30.220Z,94.10
2017-11-12T15:20:31.508Z,94.00
2017-11-12T15:23:33.519Z,93.70
2017-11-12T15:26:34.882Z,93.70
2017-11-12T15:29:36.312Z,93.80
2017-11-12T15:32:37.665Z,93.90
2017-11-12T15:35:38.965Z,93.60
2017-11-12T15:38:40.436Z,93.60
2017-11-12T15:41:42.532Z,93.10
2017-11-12T15:44:43.860Z,93.10
2017-11-12T15:47:47.403Z,93.40
2017-11-12T15:50:48.772Z,93.30
2017-11-12T15:53:50.135Z,93.40
2017-11-12T15:56:51.469Z,93.60
2017-11-12T15:59:52.811Z,93.60
2017-11-12T16:02:54.104Z,93.80
2017-11-12T16:05:56.182Z,94.10
2017-11-12T16:08:58.303Z,94.10
2017-11-12T16:11:59.654Z,94.00
2017-11-12T16:15:00.988Z,94.00
2017-11-12T16:18:02.409Z,93.90
2017-11-12T16:21:04.538Z,93.90
2017-11-12T16:24:05.809Z,93.90
2017-11-12T16:27:07.933Z,93.30
2017-11-12T16:30:10.066Z,93.70
2017-11-12T16:33:11.375Z,93.60
2017-11-12T16:36:12.702Z,93.50
2017-11-12T16:39:14.037Z,93.40
2017-11-12T16:42:15.434Z,93.50
2017-11-12T16:45:16.754Z,93.40
2017-11-12T16:48:18.144Z,93.30
2017-11-12T16:54:28.410Z,93.90
2017-11-12T16:57:29.788Z,93.80
2017-11-12T17:00:31.838Z,94.10
2017-11-12T17:03:33.182Z,94.00
2017-11-12T17:06:34.498Z,94.30
2017-11-12T17:09:35.881Z,94.20
2017-11-12T17:12:37.230Z,94.20
2017-11-12T17:15:38.530Z,94.30
2017-11-12T17:18:39.774Z,94.20
2017-11-12T17:21:41.059Z,94.20
2017-11-12T17:24:42.359Z,94.10
2017-11-12T17:27:43.688Z,94.30
2017-11-12T17:30:45.788Z,94.20
2017-11-12T17:33:47.060Z,94.20
2017-11-12T17:36:48.385Z,94.20
2017-11-12T17:39:49.641Z,94.30
2017-11-12T17:42:51.004Z,94.40
2017-11-12T17:45:52.333Z,94.40
2017-11-12T17:48:53.648Z,94.40
2017-11-12T17:51:54.948Z,94.40
2017-11-12T17:54:56.231Z,94.20
2017-11-12T17:57:57.548Z,94.20
2017-11-12T18:00:58.838Z,94.30
2017-11-12T18:04:00.167Z,94.30
2017-11-12T18:07:01.472Z,94.30
2017-11-12T18:10:02.826Z,94.20
2017-11-12T18:13:04.115Z,94.40
2017-11-12T18:16:05.451Z,94.30
2017-11-12T18:19:06.748Z,94.50
2017-11-12T18:22:08.840Z,94.30
2017-11-12T18:25:10.156Z,94.20
2017-11-12T18:28:11.483Z,94.50
2017-11-12T18:31:12.839Z,94.50
2017-11-12T18:34:14.130Z,94.50
2017-11-12T18:37:16.160Z,94.40
2017-11-12T18:40:17.560Z,94.40
2017-11-12T18:43:18.892Z,94.30
2017-11-12T18:46:20.985Z,94.50
2017-11-12T18:49:22.291Z,94.50
2017-11-12T18:52:23.655Z,94.30
2017-11-12T18:55:28.588Z,94.50
2017-11-12T18:58:33.520Z,94.40
2017-11-12T19:01:41.526Z,94.30
2017-11-12T19:04:49.443Z,94.20
2017-11-12T19:07:51.513Z,94.00
2017-11-12T19:14:00.881Z,94.40
2017-11-12T19:17:03.067Z,94.40
2017-11-12T19:20:19.396Z,94.50
2017-11-12T19:27:15.745Z,94.30
2017-11-12T19:30:17.065Z,94.50
2017-11-12T19:33:18.462Z,94.30
2017-11-12T19:36:19.791Z,94.40
2017-11-12T19:39:21.082Z,94.30
2017-11-12T19:42:23.129Z,94.50
2017-11-12T19:45:24.431Z,94.50
2017-11-12T19:48:25.696Z,94.50
2017-11-12T19:51:26.977Z,94.50
2017-11-12T19:54:28.312Z,94.60
2017-11-12T19:57:29.620Z,94.50
2017-11-12T20:00:30.993Z,94.40
2017-11-12T20:03:32.369Z,94.50
2017-11-12T20:06:33.768Z,94.40
2017-11-12T20:09:35.118Z,94.30
2017-11-12T20:12:36.616Z,94.20
2017-11-12T20:15:39.834Z,94.30
2017-11-12T20:18:42.242Z,94.10
2017-11-12T20:21:44.672Z,94.10
2017-11-12T20:24:46.024Z,94.30
2017-11-12T20:27:49.161Z,94.30
2017-11-12T20:30:51.728Z,94.00
2017-11-12T20:33:53.138Z,93.90
2017-11-12T20:36:55.226Z,94.20
2017-11-12T20:39:57.224Z,94.20
2017-11-12T20:42:59.343Z,94.20
2017-11-12T20:46:01.126Z,94.10
2017-11-12T20:49:03.845Z,94.30
2017-11-12T20:52:05.995Z,93.90
2017-11-12T20:55:07.394Z,94.10
2017-11-12T20:58:09.890Z,94.00
2017-11-12T21:01:11.288Z,94.10
2017-11-12T21:04:13.700Z,93.90
2017-11-12T21:07:16.951Z,94.20
2017-11-12T21:10:18.564Z,94.40
2017-11-12T21:13:20.467Z,94.30
2017-11-12T21:16:23.545Z,94.10
2017-11-12T21:19:25.772Z,94.30
2017-11-12T21:22:27.821Z,93.90
2017-11-12T21:25:31.255Z,94.10
2017-11-12T21:28:33.916Z,94.20
2017-11-12T21:35:21.422Z,94.20
2017-11-12T21:38:24.417Z,94.00
2017-11-12T21:41:25.780Z,94.00
2017-11-12T21:44:27.315Z,89.00
2017-11-12T21:47:30.771Z,90.70
2017-11-12T21:50:32.235Z,90.70
2017-11-12T21:53:33.649Z,92.40
2017-11-12T21:56:35.077Z,93.20
2017-11-12T21:59:36.533Z,93.70
2017-11-12T22:02:37.989Z,94.50
2017-11-12T22:05:39.396Z,94.50
2017-11-12T22:08:40.950Z,94.40
2017-11-12T22:11:42.392Z,94.30
2017-11-12T22:14:43.877Z,94.30
2017-11-12T22:17:46.127Z,94.40
2017-11-12T22:20:47.640Z,94.40
2017-11-12T22:23:49.096Z,94.40
2017-11-12T22:26:50.599Z,94.40
2017-11-12T22:29:52.229Z,94.50
2017-11-12T22:32:53.673Z,94.40
2017-11-12T22:35:55.132Z,94.30
2017-11-12T22:38:56.542Z,94.30
2017-11-12T22:41:58.044Z,94.30
2017-11-12T22:44:59.521Z,94.30
2017-11-12T22:48:01.735Z,94.30
2017-11-12T22:51:03.100Z,94.30
2017-11-12T22:54:04.506Z,94.40
2017-11-12T22:57:06.701Z,94.40
2017-11-12T23:00:08.076Z,94.30
2017-11-12T23:03:09.535Z,94.40
2017-11-12T23:06:10.959Z,94.30
2017-11-12T23:09:12.408Z,94.30
2017-11-12T23:12:13.804Z,94.20
2017-11-12T23:15:15.292Z,94.30
2017-11-12T23:18:17.390Z,94.20
2017-11-12T23:21:18.868Z,94.20
2017-11-12T23:24:20.392Z,94.10
2017-11-12T23:27:21.877Z,94.30
2017-11-12T23:30:23.447Z,94.30
2017-11-12T23:33:24.889Z,94.30
2017-11-12T23:36:26.375Z,93.90
2017-11-12T23:39:27.953Z,93.80
2017-11-12T23:42:30.162Z,94.30
2017-11-12T23:45:31.616Z,94.20
2017-11-12T23:48:33.238Z,94.00
2017-11-12T23:51:34.773Z,94.20
2017-11-12T23:54:36.285Z,94.30
2017-11-12T23:57:37.809Z,94.20
